86TX weather

Flying J Airport
Bulverde, Texas, United States

Public forecast

Using degrees Fahrenheit for public forecast. Weather courtesy of forecast.io.

Closest aviation weather report (METAR) to Flying J Airport

Closest report is San Antonio International Airport, 13.1 nm (24.3 km) SSW. Retrieved 2020/08/08 12:23 UTC (0 seconds ago):

KSAT 081223Z 17006KT 10SM BKN013 BKN028 26/24 A3010

Closest aviation forecast (TAF) to Flying J Airport

Closest forecast is San Antonio International Airport, 13.1 nm (24.3 km) SSW. Retrieved 2020/08/08 12:30 UTC (0 seconds ago):

TAF KSAT 081129Z 0812/0918 16008KT P6SM SCT015 TEMPO 0812/0814 BKN010 FM081400 17010G18KT P6SM SCT040 FM090900 18006KT P6SM BKN018 FM091600 17010KT P6SM SCT050